sensor_id;sensor_type;location;lat;lon;timestamp;P1;durP1;ratioP1;P2;durP2;ratioP2
7515;SDS011;3799;47.184;8.538;2023-07-29T00:00:47;3.78;;;1.90;;
7515;SDS011;3799;47.184;8.538;2023-07-29T00:03:14;3.45;;;1.92;;
7515;SDS011;3799;47.184;8.538;2023-07-29T00:05:44;5.30;;;1.90;;
7515;SDS011;3799;47.184;8.538;2023-07-29T00:08:11;5.55;;;1.88;;
7515;SDS011;3799;47.184;8.538;2023-07-29T00:10:39;4.28;;;1.77;;
7515;SDS011;3799;47.184;8.538;2023-07-29T00:13:06;3.70;;;1.70;;
7515;SDS011;3799;47.184;8.538;2023-07-29T00:15:34;2.80;;;1.30;;
7515;SDS011;3799;47.184;8.538;2023-07-29T00:18:01;2.75;;;1.58;;
7515;SDS011;3799;47.184;8.538;2023-07-29T00:20:29;5.10;;;1.80;;
7515;SDS011;3799;47.184;8.538;2023-07-29T00:22:56;5.47;;;1.77;;
7515;SDS011;3799;47.184;8.538;2023-07-29T00:25:25;5.28;;;1.85;;
7515;SDS011;3799;47.184;8.538;2023-07-29T00:27:54;4.28;;;1.75;;
7515;SDS011;3799;47.184;8.538;2023-07-29T00:30:23;3.95;;;1.90;;
7515;SDS011;3799;47.184;8.538;2023-07-29T00:32:50;6.20;;;2.97;;
7515;SDS011;3799;47.184;8.538;2023-07-29T00:35:17;3.45;;;1.80;;
7515;SDS011;3799;47.184;8.538;2023-07-29T00:37:45;5.55;;;2.53;;
7515;SDS011;3799;47.184;8.538;2023-07-29T00:40:14;4.03;;;2.20;;
7515;SDS011;3799;47.184;8.538;2023-07-29T00:42:45;6.22;;;1.80;;
7515;SDS011;3799;47.184;8.538;2023-07-29T00:45:13;7.45;;;1.95;;
7515;SDS011;3799;47.184;8.538;2023-07-29T00:47:40;3.95;;;2.17;;
7515;SDS011;3799;47.184;8.538;2023-07-29T00:50:12;3.30;;;1.60;;
7515;SDS011;3799;47.184;8.538;2023-07-29T00:52:41;5.57;;;1.58;;
7515;SDS011;3799;47.184;8.538;2023-07-29T00:55:08;4.50;;;2.03;;
7515;SDS011;3799;47.184;8.538;2023-07-29T00:57:36;3.35;;;2.08;;
7515;SDS011;3799;47.184;8.538;2023-07-29T01:00:03;3.90;;;2.08;;
7515;SDS011;3799;47.184;8.538;2023-07-29T01:02:31;4.18;;;2.20;;
7515;SDS011;3799;47.184;8.538;2023-07-29T01:04:59;4.63;;;2.17;;
7515;SDS011;3799;47.184;8.538;2023-07-29T01:07:30;3.95;;;1.90;;
7515;SDS011;3799;47.184;8.538;2023-07-29T01:15:30;3.97;;;2.17;;
7515;SDS011;3799;47.184;8.538;2023-07-29T01:18:23;5.55;;;2.30;;
7515;SDS011;3799;47.184;8.538;2023-07-29T01:20:58;3.75;;;1.88;;
7515;SDS011;3799;47.184;8.538;2023-07-29T01:23:28;5.38;;;2.10;;
7515;SDS011;3799;47.184;8.538;2023-07-29T01:26:00;3.63;;;1.70;;
7515;SDS011;3799;47.184;8.538;2023-07-29T01:28:27;3.88;;;1.90;;
7515;SDS011;3799;47.184;8.538;2023-07-29T01:31:03;4.57;;;1.95;;
7515;SDS011;3799;47.184;8.538;2023-07-29T01:34:01;6.15;;;1.90;;
7515;SDS011;3799;47.184;8.538;2023-07-29T01:36:46;3.90;;;2.00;;
7515;SDS011;3799;47.184;8.538;2023-07-29T01:39:15;3.75;;;1.95;;
7515;SDS011;3799;47.184;8.538;2023-07-29T01:41:44;3.90;;;2.03;;
7515;SDS011;3799;47.184;8.538;2023-07-29T01:44:12;4.18;;;2.00;;
7515;SDS011;3799;47.184;8.538;2023-07-29T01:46:40;3.15;;;1.80;;
7515;SDS011;3799;47.184;8.538;2023-07-29T01:49:07;5.15;;;2.10;;
7515;SDS011;3799;47.184;8.538;2023-07-29T01:51:37;7.15;;;2.42;;
7515;SDS011;3799;47.184;8.538;2023-07-29T01:54:04;3.03;;;1.73;;
7515;SDS011;3799;47.184;8.538;2023-07-29T01:56:31;4.07;;;2.00;;
7515;SDS011;3799;47.184;8.538;2023-07-29T01:58:59;3.40;;;1.75;;
7515;SDS011;3799;47.184;8.538;2023-07-29T02:01:26;3.85;;;2.05;;
7515;SDS011;3799;47.184;8.538;2023-07-29T02:03:53;3.30;;;2.13;;
7515;SDS011;3799;47.184;8.538;2023-07-29T02:06:22;4.93;;;1.95;;
7515;SDS011;3799;47.184;8.538;2023-07-29T02:08:50;4.68;;;1.92;;
7515;SDS011;3799;47.184;8.538;2023-07-29T02:11:17;4.53;;;2.03;;
7515;SDS011;3799;47.184;8.538;2023-07-29T02:13:47;3.13;;;1.85;;
7515;SDS011;3799;47.184;8.538;2023-07-29T02:16:16;4.53;;;2.13;;
7515;SDS011;3799;47.184;8.538;2023-07-29T02:18:44;4.40;;;2.10;;
7515;SDS011;3799;47.184;8.538;2023-07-29T02:21:11;5.30;;;1.92;;
7515;SDS011;3799;47.184;8.538;2023-07-29T02:23:39;7.97;;;2.13;;
7515;SDS011;3799;47.184;8.538;2023-07-29T02:26:06;4.75;;;2.03;;
7515;SDS011;3799;47.184;8.538;2023-07-29T02:28:33;5.55;;;1.50;;
7515;SDS011;3799;47.184;8.538;2023-07-29T02:33:42;4.32;;;2.33;;
7515;SDS011;3799;47.184;8.538;2023-07-29T02:36:11;6.47;;;2.42;;
7515;SDS011;3799;47.184;8.538;2023-07-29T02:38:39;9.02;;;2.92;;
7515;SDS011;3799;47.184;8.538;2023-07-29T02:41:07;6.82;;;2.40;;
7515;SDS011;3799;47.184;8.538;2023-07-29T02:43:36;6.25;;;2.92;;
7515;SDS011;3799;47.184;8.538;2023-07-29T02:46:03;5.00;;;2.70;;
7515;SDS011;3799;47.184;8.538;2023-07-29T02:48:31;5.00;;;2.22;;
7515;SDS011;3799;47.184;8.538;2023-07-29T02:50:58;4.72;;;2.50;;
7515;SDS011;3799;47.184;8.538;2023-07-29T02:53:26;4.45;;;2.85;;
7515;SDS011;3799;47.184;8.538;2023-07-29T02:55:53;4.22;;;2.35;;
7515;SDS011;3799;47.184;8.538;2023-07-29T02:58:20;5.50;;;2.40;;
7515;SDS011;3799;47.184;8.538;2023-07-29T03:00:48;5.53;;;2.42;;
7515;SDS011;3799;47.184;8.538;2023-07-29T03:03:15;6.97;;;3.30;;
7515;SDS011;3799;47.184;8.538;2023-07-29T03:05:43;5.72;;;2.53;;
7515;SDS011;3799;47.184;8.538;2023-07-29T03:08:13;5.90;;;2.85;;
7515;SDS011;3799;47.184;8.538;2023-07-29T03:10:41;4.43;;;2.60;;
7515;SDS011;3799;47.184;8.538;2023-07-29T03:13:10;5.55;;;2.20;;
7515;SDS011;3799;47.184;8.538;2023-07-29T03:15:37;4.53;;;1.90;;
7515;SDS011;3799;47.184;8.538;2023-07-29T03:18:05;4.85;;;2.45;;
7515;SDS011;3799;47.184;8.538;2023-07-29T03:20:32;4.85;;;2.42;;
7515;SDS011;3799;47.184;8.538;2023-07-29T03:22:59;4.90;;;2.42;;
7515;SDS011;3799;47.184;8.538;2023-07-29T03:25:30;5.32;;;2.58;;
7515;SDS011;3799;47.184;8.538;2023-07-29T03:27:57;4.93;;;2.65;;
7515;SDS011;3799;47.184;8.538;2023-07-29T03:30:24;4.93;;;2.72;;
7515;SDS011;3799;47.184;8.538;2023-07-29T03:32:53;8.23;;;2.35;;
7515;SDS011;3799;47.184;8.538;2023-07-29T03:35:23;7.00;;;3.00;;
7515;SDS011;3799;47.184;8.538;2023-07-29T03:37:51;7.78;;;2.75;;
7515;SDS011;3799;47.184;8.538;2023-07-29T03:40:18;6.13;;;3.22;;
7515;SDS011;3799;47.184;8.538;2023-07-29T03:42:45;5.70;;;3.30;;
7515;SDS011;3799;47.184;8.538;2023-07-29T03:45:12;5.13;;;2.90;;
7515;SDS011;3799;47.184;8.538;2023-07-29T03:47:39;5.50;;;3.15;;
7515;SDS011;3799;47.184;8.538;2023-07-29T03:50:07;5.28;;;2.80;;
7515;SDS011;3799;47.184;8.538;2023-07-29T03:52:35;4.57;;;2.80;;
7515;SDS011;3799;47.184;8.538;2023-07-29T03:55:02;5.88;;;3.28;;
7515;SDS011;3799;47.184;8.538;2023-07-29T03:57:29;6.05;;;3.65;;
7515;SDS011;3799;47.184;8.538;2023-07-29T03:59:57;5.88;;;3.30;;
7515;SDS011;3799;47.184;8.538;2023-07-29T04:02:29;7.30;;;3.30;;
7515;SDS011;3799;47.184;8.538;2023-07-29T04:04:57;6.60;;;3.55;;
7515;SDS011;3799;47.184;8.538;2023-07-29T04:07:25;5.13;;;3.25;;
7515;SDS011;3799;47.184;8.538;2023-07-29T04:09:52;5.68;;;3.40;;
7515;SDS011;3799;47.184;8.538;2023-07-29T04:12:20;5.03;;;2.88;;
7515;SDS011;3799;47.184;8.538;2023-07-29T04:14:48;6.53;;;3.60;;
7515;SDS011;3799;47.184;8.538;2023-07-29T04:17:16;5.78;;;3.53;;
7515;SDS011;3799;47.184;8.538;2023-07-29T04:19:45;5.68;;;3.58;;
7515;SDS011;3799;47.184;8.538;2023-07-29T04:22:15;7.47;;;3.53;;
7515;SDS011;3799;47.184;8.538;2023-07-29T04:24:43;5.18;;;3.25;;
7515;SDS011;3799;47.184;8.538;2023-07-29T04:27:10;5.50;;;3.45;;
7515;SDS011;3799;47.184;8.538;2023-07-29T04:29:38;6.82;;;3.47;;
7515;SDS011;3799;47.184;8.538;2023-07-29T04:32:05;6.57;;;3.20;;
7515;SDS011;3799;47.184;8.538;2023-07-29T04:34:32;6.03;;;3.05;;
7515;SDS011;3799;47.184;8.538;2023-07-29T04:37:00;7.32;;;3.63;;
7515;SDS011;3799;47.184;8.538;2023-07-29T04:39:30;6.60;;;3.22;;
7515;SDS011;3799;47.184;8.538;2023-07-29T04:41:57;5.45;;;3.30;;
7515;SDS011;3799;47.184;8.538;2023-07-29T04:44:24;6.68;;;3.58;;
7515;SDS011;3799;47.184;8.538;2023-07-29T04:46:54;5.60;;;3.47;;
7515;SDS011;3799;47.184;8.538;2023-07-29T04:49:21;5.47;;;3.33;;
7515;SDS011;3799;47.184;8.538;2023-07-29T04:51:49;5.53;;;3.05;;
7515;SDS011;3799;47.184;8.538;2023-07-29T04:54:16;5.60;;;3.20;;
7515;SDS011;3799;47.184;8.538;2023-07-29T04:56:43;4.72;;;2.88;;
7515;SDS011;3799;47.184;8.538;2023-07-29T04:59:10;5.30;;;2.95;;
7515;SDS011;3799;47.184;8.538;2023-07-29T05:01:39;4.85;;;2.85;;
7515;SDS011;3799;47.184;8.538;2023-07-29T05:04:09;5.32;;;2.53;;
7515;SDS011;3799;47.184;8.538;2023-07-29T05:06:36;4.85;;;2.80;;
7515;SDS011;3799;47.184;8.538;2023-07-29T05:09:13;5.78;;;2.85;;
7515;SDS011;3799;47.184;8.538;2023-07-29T05:11:45;5.38;;;2.90;;
7515;SDS011;3799;47.184;8.538;2023-07-29T05:14:13;5.75;;;2.60;;
7515;SDS011;3799;47.184;8.538;2023-07-29T05:16:42;6.55;;;2.70;;
7515;SDS011;3799;47.184;8.538;2023-07-29T05:19:09;5.38;;;3.00;;
7515;SDS011;3799;47.184;8.538;2023-07-29T05:21:37;5.88;;;2.40;;
7515;SDS011;3799;47.184;8.538;2023-07-29T05:24:04;5.60;;;2.55;;
7515;SDS011;3799;47.184;8.538;2023-07-29T05:26:32;5.28;;;2.63;;
7515;SDS011;3799;47.184;8.538;2023-07-29T05:29:00;6.18;;;3.20;;
7515;SDS011;3799;47.184;8.538;2023-07-29T05:31:27;5.03;;;2.50;;
7515;SDS011;3799;47.184;8.538;2023-07-29T05:33:55;5.07;;;2.72;;
7515;SDS011;3799;47.184;8.538;2023-07-29T05:36:23;4.68;;;2.42;;
7515;SDS011;3799;47.184;8.538;2023-07-29T05:38:51;4.80;;;2.78;;
7515;SDS011;3799;47.184;8.538;2023-07-29T05:41:19;4.65;;;2.67;;
7515;SDS011;3799;47.184;8.538;2023-07-29T05:43:46;4.25;;;2.72;;
7515;SDS011;3799;47.184;8.538;2023-07-29T05:46:14;5.93;;;3.28;;
7515;SDS011;3799;47.184;8.538;2023-07-29T05:48:41;4.93;;;2.92;;
7515;SDS011;3799;47.184;8.538;2023-07-29T05:51:09;5.25;;;2.38;;
7515;SDS011;3799;47.184;8.538;2023-07-29T05:53:36;5.63;;;3.38;;
7515;SDS011;3799;47.184;8.538;2023-07-29T05:56:03;5.57;;;3.20;;
7515;SDS011;3799;47.184;8.538;2023-07-29T05:58:31;5.35;;;3.22;;
7515;SDS011;3799;47.184;8.538;2023-07-29T06:00:58;5.72;;;3.90;;
7515;SDS011;3799;47.184;8.538;2023-07-29T06:03:25;5.72;;;3.50;;
7515;SDS011;3799;47.184;8.538;2023-07-29T06:05:55;6.28;;;3.38;;
7515;SDS011;3799;47.184;8.538;2023-07-29T06:08:22;5.35;;;3.33;;
7515;SDS011;3799;47.184;8.538;2023-07-29T06:10:50;7.55;;;3.78;;
7515;SDS011;3799;47.184;8.538;2023-07-29T06:13:17;6.28;;;3.75;;
7515;SDS011;3799;47.184;8.538;2023-07-29T06:15:47;4.50;;;2.10;;
7515;SDS011;3799;47.184;8.538;2023-07-29T06:18:14;4.20;;;2.28;;
7515;SDS011;3799;47.184;8.538;2023-07-29T06:20:41;3.63;;;1.77;;
7515;SDS011;3799;47.184;8.538;2023-07-29T06:23:08;6.78;;;2.45;;
7515;SDS011;3799;47.184;8.538;2023-07-29T06:25:36;6.63;;;2.20;;
7515;SDS011;3799;47.184;8.538;2023-07-29T06:28:06;3.50;;;1.70;;
7515;SDS011;3799;47.184;8.538;2023-07-29T06:30:34;6.47;;;2.67;;
7515;SDS011;3799;47.184;8.538;2023-07-29T06:33:01;7.28;;;3.33;;
7515;SDS011;3799;47.184;8.538;2023-07-29T06:35:29;4.70;;;2.45;;
7515;SDS011;3799;47.184;8.538;2023-07-29T06:37:57;5.85;;;2.50;;
7515;SDS011;3799;47.184;8.538;2023-07-29T06:40:24;6.65;;;3.50;;
7515;SDS011;3799;47.184;8.538;2023-07-29T06:42:51;5.22;;;2.60;;
7515;SDS011;3799;47.184;8.538;2023-07-29T06:45:18;9.00;;;3.00;;
7515;SDS011;3799;47.184;8.538;2023-07-29T06:47:46;5.70;;;2.53;;
7515;SDS011;3799;47.184;8.538;2023-07-29T06:50:13;6.55;;;2.80;;
7515;SDS011;3799;47.184;8.538;2023-07-29T06:52:40;7.30;;;3.03;;
7515;SDS011;3799;47.184;8.538;2023-07-29T06:55:10;5.30;;;2.80;;
7515;SDS011;3799;47.184;8.538;2023-07-29T06:57:37;6.63;;;2.92;;
7515;SDS011;3799;47.184;8.538;2023-07-29T07:00:05;5.30;;;2.78;;
7515;SDS011;3799;47.184;8.538;2023-07-29T07:02:33;4.88;;;2.28;;
7515;SDS011;3799;47.184;8.538;2023-07-29T07:05:00;5.55;;;3.05;;
7515;SDS011;3799;47.184;8.538;2023-07-29T07:07:27;5.43;;;2.75;;
7515;SDS011;3799;47.184;8.538;2023-07-29T07:09:56;5.30;;;2.90;;
7515;SDS011;3799;47.184;8.538;2023-07-29T07:12:30;5.45;;;3.08;;
7515;SDS011;3799;47.184;8.538;2023-07-29T07:14:57;4.38;;;2.72;;
7515;SDS011;3799;47.184;8.538;2023-07-29T07:17:25;5.25;;;2.95;;
7515;SDS011;3799;47.184;8.538;2023-07-29T07:19:52;5.47;;;3.10;;
7515;SDS011;3799;47.184;8.538;2023-07-29T07:22:20;4.72;;;2.55;;
7515;SDS011;3799;47.184;8.538;2023-07-29T07:24:47;4.88;;;2.58;;
7515;SDS011;3799;47.184;8.538;2023-07-29T07:27:14;5.93;;;2.80;;
7515;SDS011;3799;47.184;8.538;2023-07-29T07:29:42;3.53;;;2.28;;
7515;SDS011;3799;47.184;8.538;2023-07-29T07:32:09;5.05;;;3.45;;
7515;SDS011;3799;47.184;8.538;2023-07-29T07:34:37;4.82;;;3.00;;
7515;SDS011;3799;47.184;8.538;2023-07-29T07:37:05;4.80;;;2.70;;
7515;SDS011;3799;47.184;8.538;2023-07-29T07:39:32;5.28;;;2.70;;
7515;SDS011;3799;47.184;8.538;2023-07-29T07:41:59;4.93;;;2.80;;
7515;SDS011;3799;47.184;8.538;2023-07-29T07:44:29;6.45;;;2.83;;
7515;SDS011;3799;47.184;8.538;2023-07-29T07:46:57;5.25;;;3.08;;
7515;SDS011;3799;47.184;8.538;2023-07-29T07:49:24;5.15;;;2.78;;
7515;SDS011;3799;47.184;8.538;2023-07-29T07:51:51;8.35;;;3.35;;
7515;SDS011;3799;47.184;8.538;2023-07-29T07:54:18;7.22;;;3.42;;
7515;SDS011;3799;47.184;8.538;2023-07-29T07:56:46;5.82;;;3.30;;
7515;SDS011;3799;47.184;8.538;2023-07-29T07:59:13;5.07;;;3.00;;
7515;SDS011;3799;47.184;8.538;2023-07-29T08:01:43;6.47;;;3.30;;
7515;SDS011;3799;47.184;8.538;2023-07-29T08:04:10;6.82;;;3.22;;
7515;SDS011;3799;47.184;8.538;2023-07-29T08:06:40;5.00;;;2.92;;
7515;SDS011;3799;47.184;8.538;2023-07-29T08:09:07;4.85;;;2.92;;
7515;SDS011;3799;47.184;8.538;2023-07-29T08:11:34;5.25;;;2.85;;
7515;SDS011;3799;47.184;8.538;2023-07-29T08:14:01;5.18;;;3.08;;
7515;SDS011;3799;47.184;8.538;2023-07-29T08:16:29;5.30;;;3.47;;
7515;SDS011;3799;47.184;8.538;2023-07-29T08:18:58;6.13;;;3.40;;
7515;SDS011;3799;47.184;8.538;2023-07-29T08:21:26;6.43;;;3.30;;
7515;SDS011;3799;47.184;8.538;2023-07-29T08:23:56;5.70;;;2.97;;
7515;SDS011;3799;47.184;8.538;2023-07-29T08:26:24;6.18;;;3.35;;
7515;SDS011;3799;47.184;8.538;2023-07-29T08:28:51;7.32;;;3.30;;
7515;SDS011;3799;47.184;8.538;2023-07-29T08:31:20;5.30;;;3.05;;
7515;SDS011;3799;47.184;8.538;2023-07-29T08:33:50;5.20;;;3.00;;
7515;SDS011;3799;47.184;8.538;2023-07-29T08:36:18;4.15;;;2.72;;
7515;SDS011;3799;47.184;8.538;2023-07-29T08:38:45;4.60;;;2.65;;
7515;SDS011;3799;47.184;8.538;2023-07-29T08:43:56;4.68;;;3.05;;
7515;SDS011;3799;47.184;8.538;2023-07-29T08:46:34;5.93;;;3.03;;
7515;SDS011;3799;47.184;8.538;2023-07-29T08:49:05;4.35;;;2.67;;
7515;SDS011;3799;47.184;8.538;2023-07-29T08:51:34;8.00;;;3.00;;
7515;SDS011;3799;47.184;8.538;2023-07-29T08:54:02;5.03;;;2.70;;
7515;SDS011;3799;47.184;8.538;2023-07-29T08:56:29;5.13;;;2.70;;
7515;SDS011;3799;47.184;8.538;2023-07-29T08:58:57;6.63;;;3.08;;
7515;SDS011;3799;47.184;8.538;2023-07-29T09:01:27;4.55;;;2.92;;
7515;SDS011;3799;47.184;8.538;2023-07-29T09:04:00;6.57;;;3.20;;
7515;SDS011;3799;47.184;8.538;2023-07-29T09:06:30;4.70;;;2.33;;
7515;SDS011;3799;47.184;8.538;2023-07-29T09:08:58;6.07;;;3.33;;
7515;SDS011;3799;47.184;8.538;2023-07-29T09:11:26;6.15;;;3.22;;
7515;SDS011;3799;47.184;8.538;2023-07-29T09:13:57;6.00;;;3.53;;
7515;SDS011;3799;47.184;8.538;2023-07-29T09:16:30;5.28;;;3.10;;
7515;SDS011;3799;47.184;8.538;2023-07-29T09:19:02;7.97;;;3.50;;
7515;SDS011;3799;47.184;8.538;2023-07-29T09:21:30;5.93;;;3.40;;
7515;SDS011;3799;47.184;8.538;2023-07-29T09:24:02;4.72;;;2.75;;
7515;SDS011;3799;47.184;8.538;2023-07-29T09:26:31;4.35;;;2.55;;
7515;SDS011;3799;47.184;8.538;2023-07-29T09:29:01;5.68;;;3.28;;
7515;SDS011;3799;47.184;8.538;2023-07-29T09:31:29;6.25;;;3.13;;
7515;SDS011;3799;47.184;8.538;2023-07-29T09:33:57;6.72;;;3.63;;
7515;SDS011;3799;47.184;8.538;2023-07-29T09:36:26;6.68;;;3.20;;
7515;SDS011;3799;47.184;8.538;2023-07-29T09:38:57;5.18;;;3.35;;
7515;SDS011;3799;47.184;8.538;2023-07-29T09:41:28;8.23;;;2.85;;
7515;SDS011;3799;47.184;8.538;2023-07-29T09:44:03;10.52;;;3.28;;
7515;SDS011;3799;47.184;8.538;2023-07-29T09:46:35;5.38;;;3.58;;
7515;SDS011;3799;47.184;8.538;2023-07-29T09:49:05;5.22;;;3.05;;
7515;SDS011;3799;47.184;8.538;2023-07-29T09:51:40;6.05;;;3.92;;
7515;SDS011;3799;47.184;8.538;2023-07-29T09:54:07;5.32;;;3.28;;
7515;SDS011;3799;47.184;8.538;2023-07-29T09:56:39;4.82;;;3.13;;
7515;SDS011;3799;47.184;8.538;2023-07-29T09:59:11;6.60;;;3.72;;
7515;SDS011;3799;47.184;8.538;2023-07-29T10:01:42;6.10;;;2.90;;
7515;SDS011;3799;47.184;8.538;2023-07-29T10:04:09;7.07;;;3.40;;
7515;SDS011;3799;47.184;8.538;2023-07-29T10:06:41;6.00;;;2.83;;
7515;SDS011;3799;47.184;8.538;2023-07-29T10:11:41;10.85;;;3.55;;
7515;SDS011;3799;47.184;8.538;2023-07-29T10:14:09;6.55;;;3.33;;
7515;SDS011;3799;47.184;8.538;2023-07-29T10:16:42;6.95;;;3.13;;
7515;SDS011;3799;47.184;8.538;2023-07-29T10:19:12;5.22;;;3.05;;
7515;SDS011;3799;47.184;8.538;2023-07-29T10:21:46;5.55;;;3.10;;
7515;SDS011;3799;47.184;8.538;2023-07-29T10:24:22;4.70;;;2.67;;
7515;SDS011;3799;47.184;8.538;2023-07-29T10:26:59;4.93;;;2.55;;
7515;SDS011;3799;47.184;8.538;2023-07-29T10:29:36;5.53;;;3.55;;
7515;SDS011;3799;47.184;8.538;2023-07-29T10:32:06;6.30;;;3.20;;
7515;SDS011;3799;47.184;8.538;2023-07-29T10:34:38;6.15;;;3.42;;
7515;SDS011;3799;47.184;8.538;2023-07-29T10:37:06;5.35;;;3.03;;
7515;SDS011;3799;47.184;8.538;2023-07-29T10:39:38;5.15;;;3.05;;
7515;SDS011;3799;47.184;8.538;2023-07-29T10:42:06;4.78;;;2.90;;
7515;SDS011;3799;47.184;8.538;2023-07-29T10:47:17;4.78;;;2.92;;
7515;SDS011;3799;47.184;8.538;2023-07-29T10:49:54;5.68;;;3.25;;
7515;SDS011;3799;47.184;8.538;2023-07-29T10:52:30;4.82;;;2.83;;
7515;SDS011;3799;47.184;8.538;2023-07-29T10:54:58;5.68;;;3.03;;
7515;SDS011;3799;47.184;8.538;2023-07-29T10:57:33;5.93;;;2.67;;
7515;SDS011;3799;47.184;8.538;2023-07-29T11:00:01;5.78;;;3.50;;
7515;SDS011;3799;47.184;8.538;2023-07-29T11:02:37;4.45;;;2.35;;
7515;SDS011;3799;47.184;8.538;2023-07-29T11:05:15;4.93;;;2.67;;
7515;SDS011;3799;47.184;8.538;2023-07-29T11:07:44;5.55;;;3.28;;
7515;SDS011;3799;47.184;8.538;2023-07-29T11:10:17;5.53;;;2.60;;
7515;SDS011;3799;47.184;8.538;2023-07-29T11:12:50;5.15;;;2.83;;
7515;SDS011;3799;47.184;8.538;2023-07-29T11:15:19;4.25;;;2.75;;
7515;SDS011;3799;47.184;8.538;2023-07-29T11:20:28;6.78;;;3.55;;
7515;SDS011;3799;47.184;8.538;2023-07-29T11:23:00;4.82;;;2.95;;
7515;SDS011;3799;47.184;8.538;2023-07-29T11:25:32;4.75;;;3.15;;
7515;SDS011;3799;47.184;8.538;2023-07-29T11:28:03;4.93;;;3.15;;
7515;SDS011;3799;47.184;8.538;2023-07-29T11:30:36;4.35;;;2.83;;
7515;SDS011;3799;47.184;8.538;2023-07-29T11:33:06;4.55;;;3.20;;
7515;SDS011;3799;47.184;8.538;2023-07-29T11:35:33;5.95;;;3.00;;
7515;SDS011;3799;47.184;8.538;2023-07-29T11:38:01;4.43;;;3.05;;
7515;SDS011;3799;47.184;8.538;2023-07-29T11:40:28;6.32;;;3.47;;
7515;SDS011;3799;47.184;8.538;2023-07-29T11:42:55;6.68;;;3.60;;
7515;SDS011;3799;47.184;8.538;2023-07-29T11:45:26;5.43;;;3.10;;
7515;SDS011;3799;47.184;8.538;2023-07-29T11:48:17;5.07;;;2.92;;
7515;SDS011;3799;47.184;8.538;2023-07-29T11:50:44;5.18;;;3.67;;
7515;SDS011;3799;47.184;8.538;2023-07-29T11:53:15;5.07;;;3.22;;
7515;SDS011;3799;47.184;8.538;2023-07-29T11:55:43;4.97;;;2.40;;
7515;SDS011;3799;47.184;8.538;2023-07-29T11:58:10;5.18;;;3.05;;
7515;SDS011;3799;47.184;8.538;2023-07-29T12:00:38;4.68;;;2.67;;
7515;SDS011;3799;47.184;8.538;2023-07-29T12:03:06;6.07;;;3.95;;
7515;SDS011;3799;47.184;8.538;2023-07-29T12:05:35;4.93;;;2.60;;
7515;SDS011;3799;47.184;8.538;2023-07-29T12:08:05;5.43;;;3.15;;
7515;SDS011;3799;47.184;8.538;2023-07-29T12:10:34;5.32;;;2.53;;
7515;SDS011;3799;47.184;8.538;2023-07-29T12:13:02;4.53;;;2.58;;
7515;SDS011;3799;47.184;8.538;2023-07-29T12:15:30;4.82;;;2.35;;
7515;SDS011;3799;47.184;8.538;2023-07-29T12:17:57;3.90;;;2.50;;
7515;SDS011;3799;47.184;8.538;2023-07-29T12:20:26;4.03;;;2.08;;
7515;SDS011;3799;47.184;8.538;2023-07-29T12:22:56;4.03;;;2.13;;
7515;SDS011;3799;47.184;8.538;2023-07-29T12:25:32;3.03;;;1.85;;
7515;SDS011;3799;47.184;8.538;2023-07-29T12:28:05;5.47;;;2.25;;
7515;SDS011;3799;47.184;8.538;2023-07-29T12:30:41;3.65;;;2.10;;
7515;SDS011;3799;47.184;8.538;2023-07-29T12:33:09;4.63;;;2.38;;
7515;SDS011;3799;47.184;8.538;2023-07-29T12:35:39;4.10;;;1.95;;
7515;SDS011;3799;47.184;8.538;2023-07-29T12:38:07;4.10;;;2.10;;
7515;SDS011;3799;47.184;8.538;2023-07-29T12:40:37;3.08;;;1.50;;
7515;SDS011;3799;47.184;8.538;2023-07-29T12:43:06;3.50;;;2.13;;
7515;SDS011;3799;47.184;8.538;2023-07-29T12:45:37;4.80;;;2.33;;
7515;SDS011;3799;47.184;8.538;2023-07-29T12:48:07;4.03;;;2.03;;
7515;SDS011;3799;47.184;8.538;2023-07-29T12:50:37;3.30;;;2.03;;
7515;SDS011;3799;47.184;8.538;2023-07-29T12:53:06;4.22;;;2.28;;
7515;SDS011;3799;47.184;8.538;2023-07-29T12:55:34;4.95;;;2.10;;
7515;SDS011;3799;47.184;8.538;2023-07-29T12:58:02;3.58;;;2.17;;
7515;SDS011;3799;47.184;8.538;2023-07-29T13:00:32;4.65;;;1.88;;
7515;SDS011;3799;47.184;8.538;2023-07-29T13:03:00;4.65;;;2.30;;
7515;SDS011;3799;47.184;8.538;2023-07-29T13:05:31;3.88;;;2.05;;
7515;SDS011;3799;47.184;8.538;2023-07-29T13:07:58;4.75;;;2.72;;
7515;SDS011;3799;47.184;8.538;2023-07-29T13:10:28;6.50;;;2.42;;
7515;SDS011;3799;47.184;8.538;2023-07-29T13:12:56;3.97;;;2.10;;
7515;SDS011;3799;47.184;8.538;2023-07-29T13:15:29;4.65;;;2.25;;
7515;SDS011;3799;47.184;8.538;2023-07-29T13:17:56;3.53;;;2.00;;
7515;SDS011;3799;47.184;8.538;2023-07-29T13:20:23;3.40;;;1.85;;
7515;SDS011;3799;47.184;8.538;2023-07-29T13:22:52;4.63;;;1.65;;
7515;SDS011;3799;47.184;8.538;2023-07-29T13:25:36;3.75;;;1.77;;
7515;SDS011;3799;47.184;8.538;2023-07-29T13:28:05;3.20;;;1.80;;
7515;SDS011;3799;47.184;8.538;2023-07-29T13:30:33;4.25;;;2.13;;
7515;SDS011;3799;47.184;8.538;2023-07-29T13:33:04;3.22;;;1.80;;
7515;SDS011;3799;47.184;8.538;2023-07-29T13:35:34;2.50;;;1.33;;
7515;SDS011;3799;47.184;8.538;2023-07-29T13:38:01;3.78;;;1.70;;
7515;SDS011;3799;47.184;8.538;2023-07-29T13:40:29;3.03;;;1.55;;
7515;SDS011;3799;47.184;8.538;2023-07-29T13:42:56;3.15;;;1.30;;
7515;SDS011;3799;47.184;8.538;2023-07-29T13:45:24;3.67;;;1.50;;
7515;SDS011;3799;47.184;8.538;2023-07-29T13:47:51;4.28;;;1.95;;
7515;SDS011;3799;47.184;8.538;2023-07-29T13:50:19;4.47;;;1.98;;
7515;SDS011;3799;47.184;8.538;2023-07-29T13:52:46;5.00;;;2.13;;
7515;SDS011;3799;47.184;8.538;2023-07-29T13:55:13;3.28;;;1.45;;
7515;SDS011;3799;47.184;8.538;2023-07-29T13:57:42;4.40;;;1.70;;
7515;SDS011;3799;47.184;8.538;2023-07-29T14:00:10;5.60;;;1.90;;
7515;SDS011;3799;47.184;8.538;2023-07-29T14:02:38;7.10;;;2.60;;
7515;SDS011;3799;47.184;8.538;2023-07-29T14:05:05;5.35;;;2.10;;
7515;SDS011;3799;47.184;8.538;2023-07-29T14:07:33;3.75;;;1.52;;
7515;SDS011;3799;47.184;8.538;2023-07-29T14:12:34;4.40;;;1.98;;
7515;SDS011;3799;47.184;8.538;2023-07-29T14:15:01;7.20;;;2.20;;
7515;SDS011;3799;47.184;8.538;2023-07-29T14:17:29;3.85;;;1.50;;
7515;SDS011;3799;47.184;8.538;2023-07-29T14:19:57;4.60;;;1.55;;
7515;SDS011;3799;47.184;8.538;2023-07-29T14:22:25;3.65;;;1.60;;
7515;SDS011;3799;47.184;8.538;2023-07-29T14:24:52;3.67;;;1.60;;
7515;SDS011;3799;47.184;8.538;2023-07-29T14:27:20;3.22;;;1.55;;
7515;SDS011;3799;47.184;8.538;2023-07-29T14:29:48;4.70;;;1.80;;
7515;SDS011;3799;47.184;8.538;2023-07-29T14:32:20;4.72;;;1.60;;
7515;SDS011;3799;47.184;8.538;2023-07-29T14:34:49;3.88;;;1.98;;
7515;SDS011;3799;47.184;8.538;2023-07-29T14:37:16;2.92;;;1.50;;
7515;SDS011;3799;47.184;8.538;2023-07-29T14:39:43;3.67;;;1.75;;
7515;SDS011;3799;47.184;8.538;2023-07-29T14:42:11;3.67;;;1.70;;
7515;SDS011;3799;47.184;8.538;2023-07-29T14:44:41;3.67;;;1.63;;
7515;SDS011;3799;47.184;8.538;2023-07-29T14:47:09;3.40;;;1.80;;
7515;SDS011;3799;47.184;8.538;2023-07-29T14:49:39;5.30;;;1.98;;
7515;SDS011;3799;47.184;8.538;2023-07-29T14:52:08;5.85;;;2.20;;
7515;SDS011;3799;47.184;8.538;2023-07-29T14:54:36;4.53;;;1.95;;
7515;SDS011;3799;47.184;8.538;2023-07-29T14:57:05;4.57;;;2.08;;
7515;SDS011;3799;47.184;8.538;2023-07-29T14:59:36;5.50;;;2.03;;
7515;SDS011;3799;47.184;8.538;2023-07-29T15:02:06;3.67;;;1.80;;
7515;SDS011;3799;47.184;8.538;2023-07-29T15:04:34;5.50;;;1.65;;
7515;SDS011;3799;47.184;8.538;2023-07-29T15:07:02;4.30;;;1.67;;
7515;SDS011;3799;47.184;8.538;2023-07-29T15:09:33;4.32;;;2.10;;
7515;SDS011;3799;47.184;8.538;2023-07-29T15:12:04;3.17;;;1.63;;
7515;SDS011;3799;47.184;8.538;2023-07-29T15:14:33;3.40;;;1.70;;
7515;SDS011;3799;47.184;8.538;2023-07-29T15:17:01;4.13;;;1.98;;
7515;SDS011;3799;47.184;8.538;2023-07-29T15:19:28;4.95;;;2.00;;
7515;SDS011;3799;47.184;8.538;2023-07-29T15:21:55;4.35;;;1.73;;
7515;SDS011;3799;47.184;8.538;2023-07-29T15:24:23;7.20;;;1.75;;
7515;SDS011;3799;47.184;8.538;2023-07-29T15:26:50;3.78;;;1.60;;
7515;SDS011;3799;47.184;8.538;2023-07-29T15:29:20;3.85;;;2.05;;
7515;SDS011;3799;47.184;8.538;2023-07-29T15:31:48;4.40;;;1.80;;
7515;SDS011;3799;47.184;8.538;2023-07-29T15:34:18;4.10;;;1.83;;
7515;SDS011;3799;47.184;8.538;2023-07-29T15:36:50;3.67;;;2.00;;
7515;SDS011;3799;47.184;8.538;2023-07-29T15:39:17;4.47;;;2.08;;
7515;SDS011;3799;47.184;8.538;2023-07-29T15:41:45;3.95;;;1.83;;
7515;SDS011;3799;47.184;8.538;2023-07-29T15:44:15;4.90;;;2.38;;
7515;SDS011;3799;47.184;8.538;2023-07-29T15:46:43;3.72;;;2.00;;